createdAt,value
2024-01-07T00:00:38.032Z,21.46
2024-01-07T00:01:37.999Z,21.43
2024-01-07T00:02:38.006Z,21.46
2024-01-07T00:03:38.057Z,21.45
2024-01-07T00:04:38.147Z,21.41
2024-01-07T00:05:38.112Z,21.49
2024-01-07T00:06:38.160Z,21.47
2024-01-07T00:07:38.139Z,21.51
2024-01-07T00:08:38.143Z,21.46
2024-01-07T00:09:38.207Z,21.36
2024-01-07T00:10:38.176Z,21.39
2024-01-07T00:11:38.201Z,21.43
2024-01-07T00:12:38.241Z,21.46
2024-01-07T00:13:38.234Z,21.43
2024-01-07T00:14:38.236Z,21.43
2024-01-07T00:15:38.323Z,21.43
2024-01-07T00:16:38.386Z,21.42
2024-01-07T00:17:38.412Z,21.42
2024-01-07T00:18:38.439Z,21.46
2024-01-07T00:19:38.389Z,21.39
2024-01-07T00:20:38.370Z,21.42
2024-01-07T00:21:38.424Z,21.43
2024-01-07T00:22:38.468Z,21.42
2024-01-07T00:23:38.440Z,21.46
2024-01-07T00:24:38.519Z,21.43
2024-01-07T00:25:38.486Z,21.36
2024-01-07T00:26:38.499Z,21.49
2024-01-07T00:27:38.524Z,21.53
2024-01-07T00:28:38.617Z,21.50
2024-01-07T00:29:38.539Z,21.47
2024-01-07T00:30:38.660Z,21.49
2024-01-07T00:31:38.737Z,21.47
2024-01-07T00:32:38.642Z,21.46
2024-01-07T00:33:38.760Z,21.46
2024-01-07T00:34:38.804Z,21.45
2024-01-07T00:35:38.653Z,21.47
2024-01-07T00:36:38.721Z,21.50
2024-01-07T00:37:38.681Z,21.44
2024-01-07T00:38:38.713Z,21.42
2024-01-07T00:39:38.743Z,21.47
2024-01-07T00:40:38.837Z,21.50
2024-01-07T00:41:38.771Z,21.43
2024-01-07T00:42:38.777Z,21.48
2024-01-07T00:43:38.795Z,21.43
2024-01-07T00:44:38.803Z,21.41
2024-01-07T00:45:38.904Z,21.43
2024-01-07T00:46:38.854Z,21.45
2024-01-07T00:47:38.961Z,21.46
2024-01-07T00:48:39.037Z,21.42
2024-01-07T00:49:38.971Z,21.39
2024-01-07T00:50:38.906Z,21.41
2024-01-07T00:51:38.960Z,21.42
2024-01-07T00:52:39.046Z,21.44
2024-01-07T00:53:38.953Z,21.42
2024-01-07T00:54:39.020Z,21.46
2024-01-07T00:55:39.005Z,21.43
2024-01-07T00:56:39.026Z,21.42
2024-01-07T00:57:39.111Z,21.39
2024-01-07T00:58:39.041Z,21.39
2024-01-07T00:59:39.064Z,21.39
2024-01-07T01:00:39.200Z,21.46
2024-01-07T01:01:39.215Z,21.42
2024-01-07T01:02:39.118Z,21.40
2024-01-07T01:03:39.256Z,21.42
2024-01-07T01:04:39.295Z,21.41
2024-01-07T01:05:39.224Z,21.39
2024-01-07T01:06:39.240Z,21.37
2024-01-07T01:07:39.181Z,21.37
2024-01-07T01:08:39.190Z,21.41
2024-01-07T01:09:39.216Z,21.36
2024-01-07T01:10:39.215Z,21.52
2024-01-07T01:11:39.276Z,21.48
2024-01-07T01:12:39.306Z,21.47
2024-01-07T01:13:39.270Z,21.42
2024-01-07T01:14:39.291Z,21.41
2024-01-07T01:15:39.318Z,21.44
2024-01-07T01:16:39.410Z,21.43
2024-01-07T01:17:39.419Z,21.42
2024-01-07T01:18:39.455Z,21.41
2024-01-07T01:19:39.478Z,21.42
2024-01-07T01:20:39.395Z,21.37
2024-01-07T01:21:39.416Z,21.42
2024-01-07T01:22:39.409Z,21.42
2024-01-07T01:23:39.449Z,21.42
2024-01-07T01:24:39.464Z,21.44
2024-01-07T01:25:39.501Z,21.39
2024-01-07T01:26:39.472Z,21.41
2024-01-07T01:27:39.569Z,21.42
2024-01-07T01:28:39.629Z,21.33
2024-01-07T01:29:39.544Z,21.37
2024-01-07T01:30:39.655Z,21.44
2024-01-07T01:31:39.756Z,21.36
2024-01-07T01:32:39.719Z,21.39
2024-01-07T01:33:39.820Z,21.35
2024-01-07T01:34:39.743Z,21.37
2024-01-07T01:35:39.761Z,21.42
2024-01-07T01:36:39.845Z,21.39
2024-01-07T01:37:39.836Z,21.37
2024-01-07T01:38:58.490Z,21.41
2024-01-07T01:39:58.620Z,21.41
2024-01-07T01:40:58.489Z,21.36
2024-01-07T01:41:58.491Z,21.32
2024-01-07T01:42:58.527Z,21.39
2024-01-07T01:43:58.483Z,21.40
2024-01-07T01:44:58.466Z,21.37
2024-01-07T01:45:58.506Z,21.37
2024-01-07T01:46:58.477Z,21.36
2024-01-07T01:47:58.505Z,21.35
2024-01-07T01:48:58.547Z,21.39
2024-01-07T01:49:58.510Z,21.32
2024-01-07T01:50:58.533Z,21.33
2024-01-07T01:51:58.564Z,21.33
2024-01-07T01:52:58.438Z,21.37
2024-01-07T01:53:58.424Z,21.37
2024-01-07T01:54:58.441Z,21.39
2024-01-07T01:55:58.409Z,21.46
2024-01-07T01:56:58.428Z,21.39
2024-01-07T01:57:58.459Z,21.41
2024-01-07T01:58:58.400Z,21.44
2024-01-07T01:59:58.365Z,21.39
2024-01-07T02:00:58.478Z,21.35
2024-01-07T02:01:58.399Z,21.39
2024-01-07T02:02:58.474Z,21.37
2024-01-07T02:03:58.405Z,21.39
2024-01-07T02:04:58.457Z,21.39
2024-01-07T02:05:58.339Z,21.35
2024-01-07T02:06:58.359Z,21.36
2024-01-07T02:07:58.320Z,21.35
2024-01-07T02:08:58.312Z,21.36
2024-01-07T02:09:58.354Z,21.36
2024-01-07T02:10:58.287Z,21.33
2024-01-07T02:11:58.288Z,21.36
2024-01-07T02:12:58.295Z,21.37
2024-01-07T02:13:58.284Z,21.40
2024-01-07T02:14:58.350Z,21.32
2024-01-07T02:15:58.298Z,21.35
2024-01-07T02:16:58.245Z,21.33
2024-01-07T02:17:58.264Z,21.30
2024-01-07T02:18:58.320Z,21.35
2024-01-07T02:19:58.344Z,21.32
2024-01-07T02:20:58.205Z,21.35
2024-01-07T02:21:58.228Z,21.33
2024-01-07T02:22:58.196Z,21.37
2024-01-07T02:23:58.217Z,21.36
2024-01-07T02:24:58.187Z,21.32
2024-01-07T02:25:58.170Z,21.35
2024-01-07T02:26:58.261Z,21.33
2024-01-07T02:27:58.272Z,21.36
2024-01-07T02:28:58.205Z,21.36
2024-01-07T02:29:58.264Z,21.32
2024-01-07T02:30:58.354Z,21.36
2024-01-07T02:31:58.300Z,21.35
2024-01-07T02:32:58.401Z,21.37
2024-01-07T02:33:58.509Z,21.35
2024-01-07T02:34:58.378Z,21.35
2024-01-07T02:35:58.431Z,21.36
2024-01-07T02:36:58.513Z,21.33
2024-01-07T02:37:58.481Z,21.37
2024-01-07T02:38:58.604Z,21.40
2024-01-07T02:40:01.376Z,21.32
2024-01-07T02:40:58.520Z,21.36
2024-01-07T02:41:58.511Z,21.36
2024-01-07T02:42:58.504Z,21.30
2024-01-07T02:43:58.484Z,21.36
2024-01-07T02:44:58.494Z,21.36
2024-01-07T02:45:58.514Z,21.32
2024-01-07T02:46:58.460Z,21.33
2024-01-07T02:47:58.486Z,21.37
2024-01-07T02:48:58.483Z,21.37
2024-01-07T02:49:58.591Z,21.36
2024-01-07T02:50:58.448Z,21.35
2024-01-07T02:51:58.422Z,21.40
2024-01-07T02:52:58.381Z,21.42
2024-01-07T02:53:58.369Z,21.36
2024-01-07T02:54:58.496Z,21.39
2024-01-07T02:55:58.355Z,21.37
2024-01-07T02:56:58.336Z,21.33
2024-01-07T02:57:58.347Z,21.32
2024-01-07T02:58:58.327Z,21.33
2024-01-07T02:59:58.315Z,21.36
2024-01-07T03:00:58.399Z,21.37
2024-01-07T03:01:58.428Z,21.39
2024-01-07T03:02:58.325Z,21.35
2024-01-07T03:03:58.344Z,21.40
2024-01-07T03:04:58.284Z,21.36
2024-01-07T03:05:58.300Z,21.44
2024-01-07T03:06:58.304Z,21.35
2024-01-07T03:07:58.229Z,21.37
2024-01-07T03:08:58.225Z,21.43
2024-01-07T03:09:58.268Z,21.39
2024-01-07T03:10:58.221Z,21.32
2024-01-07T03:11:58.200Z,21.35
2024-01-07T03:12:58.205Z,21.36
2024-01-07T03:13:58.239Z,21.33
2024-01-07T03:14:58.157Z,21.37
2024-01-07T03:15:58.201Z,21.37
2024-01-07T03:16:58.132Z,21.37
2024-01-07T03:17:58.169Z,21.36
2024-01-07T03:18:58.184Z,21.39
2024-01-07T03:19:58.080Z,21.30
2024-01-07T03:20:58.096Z,21.37
2024-01-07T03:21:58.090Z,21.40
2024-01-07T03:22:58.058Z,21.33
2024-01-07T03:23:58.060Z,21.36
2024-01-07T03:24:58.143Z,21.33
2024-01-07T03:25:58.190Z,21.33
2024-01-07T03:26:58.129Z,21.30
2024-01-07T03:27:58.228Z,21.36
2024-01-07T03:28:58.182Z,21.36
2024-01-07T03:29:58.209Z,21.37
2024-01-07T03:30:58.307Z,21.35
2024-01-07T03:31:58.251Z,21.39
2024-01-07T03:32:58.380Z,21.35
2024-01-07T03:33:58.493Z,21.35
2024-01-07T03:34:58.381Z,21.39
2024-01-07T03:35:58.380Z,21.37
2024-01-07T03:36:58.512Z,21.36
2024-01-07T03:37:58.542Z,21.35
2024-01-07T03:38:58.487Z,21.36
2024-01-07T03:39:58.576Z,21.36
2024-01-07T03:40:58.531Z,21.32
2024-01-07T03:41:58.567Z,21.30
2024-01-07T03:42:58.614Z,21.37
2024-01-07T03:43:58.635Z,21.35
2024-01-07T03:44:58.645Z,21.37
2024-01-07T03:45:58.769Z,21.29
2024-01-07T03:46:58.716Z,21.35
2024-01-07T03:47:58.800Z,21.37
2024-01-07T03:48:58.957Z,21.36
2024-01-07T03:49:58.894Z,21.33
2024-01-07T03:50:58.843Z,21.39
2024-01-07T03:51:58.954Z,21.37
2024-01-07T03:52:58.913Z,21.36
2024-01-07T03:53:58.925Z,21.40
2024-01-07T03:54:59.008Z,21.36
2024-01-07T03:55:58.993Z,21.37
2024-01-07T03:56:59.041Z,21.37
2024-01-07T03:57:59.095Z,21.36
2024-01-07T03:58:59.115Z,21.35
2024-01-07T03:59:59.132Z,21.37
2024-01-07T04:00:59.267Z,21.36
2024-01-07T04:01:59.400Z,21.37
2024-01-07T04:02:59.258Z,21.36
2024-01-07T04:03:59.405Z,21.36
2024-01-07T04:04:59.285Z,21.36
2024-01-07T04:05:59.359Z,21.36
2024-01-07T04:06:59.413Z,21.39
2024-01-07T04:07:59.406Z,21.33
2024-01-07T04:08:59.432Z,21.43
2024-01-07T04:09:59.497Z,21.44
2024-01-07T04:10:59.490Z,21.36
2024-01-07T04:11:59.542Z,21.36
2024-01-07T04:12:59.561Z,21.35
2024-01-07T04:13:59.688Z,21.37
2024-01-07T04:14:59.603Z,21.36
2024-01-07T04:15:59.701Z,21.36
2024-01-07T04:16:59.677Z,21.33
2024-01-07T04:17:59.806Z,21.35
2024-01-07T04:18:59.833Z,21.37
2024-01-07T04:19:59.863Z,21.36
2024-01-07T04:20:59.828Z,21.33
2024-01-07T04:21:59.874Z,21.37
2024-01-07T04:22:59.880Z,21.39
2024-01-07T04:23:59.924Z,21.36
2024-01-07T04:24:59.965Z,21.37
2024-01-07T04:26:00.049Z,21.36
2024-01-07T04:27:00.017Z,21.33
2024-01-07T04:28:00.070Z,21.37
2024-01-07T04:29:00.071Z,21.40
2024-01-07T04:30:00.132Z,21.39
2024-01-07T04:31:00.263Z,21.40
2024-01-07T04:32:07.560Z,21.48
2024-01-07T04:33:07.618Z,21.43
2024-01-07T04:34:07.685Z,21.43
2024-01-07T04:35:07.749Z,21.37
2024-01-07T04:36:07.579Z,21.42
2024-01-07T04:37:07.715Z,21.39
2024-01-07T04:38:07.590Z,21.42
2024-01-07T04:39:07.590Z,21.40
2024-01-07T04:40:07.745Z,21.40
2024-01-07T04:41:07.608Z,21.42
2024-01-07T04:42:09.402Z,21.39
2024-01-07T04:43:07.682Z,21.44
2024-01-07T04:44:07.630Z,21.42
2024-01-07T04:45:07.630Z,21.35
2024-01-07T04:46:07.774Z,21.39
2024-01-07T04:47:07.633Z,21.40
2024-01-07T04:48:07.679Z,21.44
2024-01-07T04:49:07.879Z,21.39
2024-01-07T04:50:07.618Z,21.40
2024-01-07T04:51:07.655Z,21.37
2024-01-07T04:52:07.690Z,21.39
2024-01-07T04:53:07.624Z,21.42
2024-01-07T04:54:07.627Z,21.40
2024-01-07T04:55:07.762Z,21.43
2024-01-07T04:56:07.638Z,21.37
2024-01-07T04:57:07.626Z,21.44
2024-01-07T04:58:07.745Z,21.42
2024-01-07T04:59:07.637Z,21.44
2024-01-07T05:00:07.626Z,21.48
2024-01-07T05:01:07.800Z,21.50
2024-01-07T05:02:07.644Z,21.50
2024-01-07T05:03:07.700Z,21.50
2024-01-07T05:04:07.688Z,21.44
2024-01-07T05:05:07.640Z,21.39
2024-01-07T05:06:07.651Z,21.42
2024-01-07T05:07:07.638Z,21.44
2024-01-07T05:08:07.639Z,21.40
2024-01-07T05:09:07.673Z,21.44
2024-01-07T05:10:07.732Z,21.46
2024-01-07T05:11:07.640Z,21.40
2024-01-07T05:12:07.680Z,21.43
2024-01-07T05:13:07.790Z,21.44
2024-01-07T05:14:07.627Z,21.39
2024-01-07T05:15:07.615Z,21.44
2024-01-07T05:16:07.660Z,21.40
2024-01-07T05:17:07.598Z,21.36
2024-01-07T05:18:07.665Z,21.37
2024-01-07T05:19:07.670Z,21.41
2024-01-07T05:20:07.743Z,21.39
2024-01-07T05:21:07.607Z,21.39
2024-01-07T05:22:07.702Z,21.37
2024-01-07T05:23:07.587Z,21.36
2024-01-07T05:24:07.610Z,21.40
2024-01-07T05:25:07.714Z,21.39
2024-01-07T05:26:07.593Z,21.35
2024-01-07T05:27:07.586Z,21.37
2024-01-07T05:28:07.771Z,21.37
2024-01-07T05:29:07.584Z,21.43
2024-01-07T05:30:07.681Z,21.40
2024-01-07T05:31:07.695Z,21.41
2024-01-07T05:32:07.598Z,21.43
2024-01-07T05:33:07.757Z,21.43
2024-01-07T05:34:07.742Z,21.35
2024-01-07T05:35:08.597Z,21.36
2024-01-07T05:36:07.595Z,21.37
2024-01-07T05:37:07.737Z,21.37
2024-01-07T05:38:07.609Z,21.36
2024-01-07T05:39:07.579Z,21.36
2024-01-07T05:40:07.779Z,21.35
2024-01-07T05:41:07.588Z,21.33
2024-01-07T05:42:07.572Z,21.36
2024-01-07T05:43:07.651Z,21.35
2024-01-07T05:44:07.607Z,21.33
2024-01-07T05:45:07.606Z,21.44
2024-01-07T05:46:07.826Z,21.39
2024-01-07T05:47:07.610Z,21.46
2024-01-07T05:48:07.673Z,21.50
2024-01-07T05:49:07.819Z,21.43
2024-01-07T05:50:07.676Z,21.39
2024-01-07T05:51:07.663Z,21.40
2024-01-07T05:52:07.698Z,21.47
2024-01-07T05:53:07.646Z,21.47
2024-01-07T05:54:07.636Z,21.44
2024-01-07T05:55:07.651Z,21.44
2024-01-07T05:56:07.628Z,21.39
2024-01-07T05:57:07.632Z,21.44
2024-01-07T05:58:07.701Z,21.51
2024-01-07T05:59:07.685Z,21.46
2024-01-07T06:00:07.709Z,21.44
2024-01-07T06:01:07.964Z,21.47
2024-01-07T06:02:07.847Z,21.53
2024-01-07T06:03:07.827Z,21.46
2024-01-07T06:04:07.938Z,21.46
2024-01-07T06:05:07.906Z,21.44
2024-01-07T06:06:07.966Z,21.44
2024-01-07T06:07:07.998Z,21.42
2024-01-07T06:08:08.098Z,21.43
2024-01-07T06:09:07.936Z,21.43
2024-01-07T06:10:08.099Z,21.39
2024-01-07T06:11:08.050Z,21.42
2024-01-07T06:12:08.014Z,21.42
2024-01-07T06:13:08.205Z,21.43
2024-01-07T06:14:08.099Z,21.43
2024-01-07T06:15:08.118Z,21.36
2024-01-07T06:16:08.256Z,21.40
2024-01-07T06:17:08.170Z,21.42
2024-01-07T06:18:08.365Z,21.40
2024-01-07T06:19:08.338Z,21.43
2024-01-07T06:20:08.419Z,21.42
2024-01-07T06:21:08.291Z,21.39
2024-01-07T06:22:08.385Z,21.36
2024-01-07T06:23:08.369Z,21.39
2024-01-07T06:24:08.385Z,21.36
2024-01-07T06:25:08.566Z,21.44
2024-01-07T06:26:08.452Z,21.36
2024-01-07T06:27:08.496Z,21.40
2024-01-07T06:28:08.658Z,21.42
2024-01-07T06:29:08.536Z,21.36
2024-01-07T06:30:08.636Z,21.43
2024-01-07T06:31:08.718Z,21.40
2024-01-07T06:32:08.653Z,21.39
2024-01-07T06:33:08.769Z,21.37
2024-01-07T06:34:08.837Z,21.35
2024-01-07T06:35:08.745Z,21.37
2024-01-07T06:36:08.804Z,21.42
2024-01-07T06:37:09.043Z,21.36
2024-01-07T06:38:08.872Z,21.40
2024-01-07T06:39:08.940Z,21.38
2024-01-07T06:40:08.991Z,21.39
2024-01-07T06:41:08.973Z,21.39
2024-01-07T06:42:09.010Z,21.35
2024-01-07T06:43:09.187Z,21.36
2024-01-07T06:44:09.078Z,21.35
2024-01-07T06:45:09.110Z,21.40
2024-01-07T06:46:09.235Z,21.39
2024-01-07T06:47:09.189Z,21.40
2024-01-07T06:48:09.325Z,21.37
2024-01-07T06:49:09.401Z,21.37
2024-01-07T06:50:09.314Z,21.36
2024-01-07T06:51:09.355Z,21.40
2024-01-07T06:52:09.456Z,21.39
2024-01-07T06:53:09.391Z,21.37
2024-01-07T06:54:12.513Z,21.39
2024-01-07T06:55:09.531Z,21.40
2024-01-07T06:56:09.438Z,21.40
2024-01-07T06:57:09.434Z,21.37
2024-01-07T06:58:09.478Z,21.39
2024-01-07T06:59:09.447Z,21.39
2024-01-07T07:00:09.481Z,21.33
2024-01-07T07:01:09.619Z,21.37
2024-01-07T07:02:09.503Z,21.39
2024-01-07T07:03:09.541Z,21.36
2024-01-07T07:04:09.522Z,21.39
2024-01-07T07:05:09.472Z,21.36
2024-01-07T07:06:09.480Z,21.39
2024-01-07T07:07:09.536Z,21.39
2024-01-07T07:08:09.475Z,21.36
2024-01-07T07:09:09.466Z,21.35
2024-01-07T07:10:09.627Z,21.35
2024-01-07T07:11:09.475Z,21.37
2024-01-07T07:12:09.479Z,21.35
2024-01-07T07:13:09.568Z,21.37
2024-01-07T07:14:09.464Z,21.37
2024-01-07T07:15:09.467Z,21.33
2024-01-07T07:16:09.579Z,21.39
2024-01-07T07:17:09.475Z,21.37
2024-01-07T07:18:09.514Z,21.33
2024-01-07T07:19:09.651Z,21.32
2024-01-07T07:20:09.569Z,21.36
2024-01-07T07:21:09.501Z,21.37
2024-01-07T07:22:09.522Z,21.35
2024-01-07T07:23:09.473Z,21.35
2024-01-07T07:24:09.626Z,21.39
2024-01-07T07:25:09.585Z,21.37
2024-01-07T07:26:09.606Z,21.36
2024-01-07T07:27:09.603Z,21.33
2024-01-07T07:28:09.841Z,21.37
2024-01-07T07:29:09.700Z,21.39
2024-01-07T07:30:09.785Z,21.39
2024-01-07T07:31:09.865Z,21.33
2024-01-07T07:32:09.859Z,21.36
2024-01-07T07:33:09.883Z,21.40
2024-01-07T07:34:09.952Z,21.35
2024-01-07T07:35:09.893Z,21.36
2024-01-07T07:36:09.990Z,21.37
2024-01-07T07:37:09.973Z,21.40
2024-01-07T07:38:09.951Z,21.42
2024-01-07T07:39:09.978Z,21.36
2024-01-07T07:40:10.102Z,21.40
2024-01-07T07:41:10.081Z,21.37
2024-01-07T07:42:10.098Z,21.39
2024-01-07T07:43:10.186Z,21.37
2024-01-07T07:44:10.165Z,21.40
2024-01-07T07:45:10.191Z,21.37
2024-01-07T07:46:10.309Z,21.40
2024-01-07T07:47:10.277Z,21.36
2024-01-07T07:48:10.406Z,21.40
2024-01-07T07:49:10.396Z,21.39
2024-01-07T07:50:10.523Z,21.41
2024-01-07T07:51:10.407Z,21.39
2024-01-07T07:52:10.556Z,21.39
2024-01-07T07:53:10.474Z,21.39
2024-01-07T07:54:10.488Z,21.33
2024-01-07T07:55:10.594Z,21.35
2024-01-07T07:56:10.562Z,21.37
2024-01-07T07:57:10.623Z,21.35
2024-01-07T07:58:10.713Z,21.36
2024-01-07T07:59:10.773Z,21.36
2024-01-07T08:00:10.757Z,21.36
2024-01-07T08:01:10.821Z,21.33
2024-01-07T08:02:10.767Z,21.35
2024-01-07T08:03:10.823Z,21.33
2024-01-07T08:04:10.836Z,21.39
2024-01-07T08:05:10.981Z,21.33
2024-01-07T08:06:12.530Z,21.30
2024-01-07T08:07:11.015Z,21.33
2024-01-07T08:08:10.923Z,21.35
2024-01-07T08:09:10.964Z,21.36
2024-01-07T08:10:11.152Z,21.35
2024-01-07T08:11:11.129Z,21.36
2024-01-07T08:12:11.054Z,21.33
2024-01-07T08:13:11.180Z,21.33
2024-01-07T08:14:11.152Z,21.40
2024-01-07T08:15:11.183Z,21.42
2024-01-07T08:16:11.499Z,21.36
2024-01-07T08:17:11.254Z,21.35
2024-01-07T08:18:11.363Z,21.37
2024-01-07T08:19:11.378Z,21.37
2024-01-07T08:20:11.430Z,21.37
2024-01-07T08:21:11.395Z,21.41
2024-01-07T08:22:11.458Z,21.32
2024-01-07T08:23:11.609Z,21.40
2024-01-07T08:24:11.517Z,21.36
2024-01-07T08:25:11.564Z,21.36
2024-01-07T08:26:11.584Z,21.38
2024-01-07T08:27:11.606Z,21.37
2024-01-07T08:28:11.705Z,21.32
2024-01-07T08:29:11.675Z,21.39
2024-01-07T08:30:11.769Z,21.36
2024-01-07T08:31:11.811Z,21.36
2024-01-07T08:32:11.788Z,21.40
2024-01-07T08:33:11.895Z,21.36
2024-01-07T08:34:11.893Z,21.33
2024-01-07T08:35:11.956Z,21.42
2024-01-07T08:36:11.962Z,21.43
2024-01-07T08:37:12.108Z,21.33
2024-01-07T08:38:12.030Z,21.39
2024-01-07T08:39:12.041Z,21.37
2024-01-07T08:40:12.102Z,21.41
2024-01-07T08:41:12.123Z,21.36
2024-01-07T08:42:12.159Z,21.42
2024-01-07T08:43:12.229Z,21.46
2024-01-07T08:44:12.192Z,21.42
2024-01-07T08:45:12.245Z,21.43
2024-01-07T08:46:12.386Z,21.41
2024-01-07T08:47:12.405Z,21.39
2024-01-07T08:48:12.445Z,21.39
2024-01-07T08:49:12.503Z,21.42
2024-01-07T08:50:12.451Z,21.43
2024-01-07T08:51:12.428Z,21.36
2024-01-07T08:52:12.571Z,21.43
2024-01-07T08:53:12.517Z,21.40
2024-01-07T08:54:12.543Z,21.40
2024-01-07T08:55:12.758Z,21.39
2024-01-07T08:56:12.665Z,21.36
2024-01-07T08:57:12.647Z,21.36
2024-01-07T08:58:12.738Z,21.37
2024-01-07T08:59:12.828Z,21.35
2024-01-07T09:00:12.735Z,21.39
2024-01-07T09:01:12.875Z,21.36
2024-01-07T09:02:12.877Z,21.36
2024-01-07T09:03:12.889Z,21.44
2024-01-07T09:04:12.907Z,21.37
2024-01-07T09:05:12.950Z,21.39
2024-01-07T09:06:12.994Z,21.49
2024-01-07T09:07:12.998Z,21.43
2024-01-07T09:08:13.029Z,21.42
2024-01-07T09:09:13.062Z,21.41
2024-01-07T09:10:13.227Z,21.39
2024-01-07T09:11:13.244Z,21.39
2024-01-07T09:12:13.176Z,21.39
2024-01-07T09:13:13.268Z,21.36
2024-01-07T09:14:13.269Z,21.37
2024-01-07T09:15:13.279Z,21.39
2024-01-07T09:16:13.577Z,21.41
2024-01-07T09:17:13.345Z,21.43
2024-01-07T09:18:13.592Z,21.41
2024-01-07T09:19:15.036Z,21.36
2024-01-07T09:20:13.507Z,21.43
2024-01-07T09:21:13.530Z,21.42
2024-01-07T09:22:13.573Z,21.35
2024-01-07T09:23:13.568Z,21.36
2024-01-07T09:24:13.567Z,21.46
2024-01-07T09:25:13.655Z,21.50
2024-01-07T09:26:13.671Z,21.45
2024-01-07T09:27:13.667Z,21.42
2024-01-07T09:28:13.788Z,21.42
2024-01-07T09:29:13.758Z,21.45
2024-01-07T09:30:13.877Z,21.41
2024-01-07T09:31:13.949Z,21.43
2024-01-07T09:32:13.863Z,21.39
2024-01-07T09:33:14.036Z,21.45
2024-01-07T09:34:13.984Z,21.43
2024-01-07T09:35:13.972Z,21.37
2024-01-07T09:36:21.107Z,21.39
2024-01-07T09:37:15.071Z,21.43
2024-01-07T09:38:15.386Z,21.41
2024-01-07T09:39:13.997Z,21.39
2024-01-07T09:40:14.056Z,21.43
2024-01-07T09:41:14.034Z,21.41
2024-01-07T09:42:13.997Z,21.39
2024-01-07T09:43:14.037Z,21.43
2024-01-07T09:44:13.990Z,21.36
2024-01-07T09:45:13.989Z,21.43
2024-01-07T09:46:14.135Z,21.42
2024-01-07T09:47:14.071Z,21.39
2024-01-07T09:48:14.096Z,21.39
2024-01-07T09:49:14.137Z,21.36
2024-01-07T09:50:14.012Z,21.45
2024-01-07T09:51:14.045Z,21.39
2024-01-07T09:52:14.122Z,21.45
2024-01-07T09:53:14.027Z,21.38
2024-01-07T09:54:14.053Z,21.43
2024-01-07T09:55:14.185Z,21.42
2024-01-07T09:56:14.130Z,21.43
2024-01-07T09:57:14.137Z,21.42
2024-01-07T09:58:14.280Z,21.39
2024-01-07T09:59:14.204Z,21.43
2024-01-07T10:00:14.218Z,21.49
2024-01-07T10:01:14.404Z,21.48
2024-01-07T10:02:14.442Z,21.49
2024-01-07T10:03:14.342Z,21.41
2024-01-07T10:04:14.475Z,21.45
2024-01-07T10:05:14.362Z,21.46
2024-01-07T10:06:14.578Z,21.42
2024-01-07T10:07:14.527Z,21.43
2024-01-07T10:08:14.474Z,21.43
2024-01-07T10:09:14.501Z,21.45
2024-01-07T10:10:14.616Z,21.46
2024-01-07T10:11:14.557Z,21.41
2024-01-07T10:12:14.573Z,21.51
2024-01-07T10:13:14.702Z,21.46
2024-01-07T10:14:14.637Z,21.45
2024-01-07T10:15:14.670Z,21.49
2024-01-07T10:16:14.836Z,21.45
2024-01-07T10:17:14.712Z,21.42
2024-01-07T10:18:14.803Z,21.43
2024-01-07T10:19:14.819Z,21.46
2024-01-07T10:20:14.804Z,21.49
2024-01-07T10:21:14.868Z,21.52
2024-01-07T10:22:14.917Z,21.49
2024-01-07T10:23:14.897Z,21.50
2024-01-07T10:24:14.987Z,21.52
2024-01-07T10:25:15.030Z,21.45
2024-01-07T10:26:20.381Z,21.52
2024-01-07T10:27:15.985Z,21.48
2024-01-07T10:28:15.030Z,21.53
2024-01-07T10:29:15.005Z,21.53
2024-01-07T10:30:15.018Z,21.48
2024-01-07T10:31:15.365Z,21.52
2024-01-07T10:32:15.015Z,21.48
2024-01-07T10:33:15.067Z,21.48
2024-01-07T10:34:15.105Z,21.43
2024-01-07T10:35:15.030Z,21.43
2024-01-07T10:36:15.005Z,21.42
2024-01-07T10:37:15.044Z,21.52
2024-01-07T10:38:15.019Z,21.41
2024-01-07T10:39:15.009Z,21.50
2024-01-07T10:40:15.169Z,21.49
2024-01-07T10:41:15.044Z,21.39
2024-01-07T10:42:15.036Z,21.48
2024-01-07T10:43:15.083Z,21.46
2024-01-07T10:44:16.746Z,21.49
2024-01-07T10:45:15.067Z,21.51
2024-01-07T10:46:15.138Z,21.48
2024-01-07T10:47:15.043Z,21.48
2024-01-07T10:48:15.116Z,21.49
2024-01-07T10:49:15.197Z,21.45
2024-01-07T10:50:15.110Z,21.46
2024-01-07T10:51:15.146Z,21.46
2024-01-07T10:52:15.185Z,21.45
2024-01-07T10:53:15.151Z,21.51
2024-01-07T10:54:15.181Z,21.45
2024-01-07T10:55:15.302Z,21.52
2024-01-07T10:56:15.239Z,21.52
2024-01-07T10:57:15.248Z,21.51
2024-01-07T10:58:15.324Z,21.44
2024-01-07T10:59:15.304Z,21.53
2024-01-07T11:00:15.342Z,21.57
2024-01-07T11:01:15.423Z,21.58
2024-01-07T11:02:15.640Z,21.59
2024-01-07T11:03:15.460Z,21.46
2024-01-07T11:04:15.562Z,21.48
2024-01-07T11:05:15.473Z,21.53
2024-01-07T11:06:15.498Z,21.46
2024-01-07T11:07:15.580Z,21.49
2024-01-07T11:08:15.519Z,21.58
2024-01-07T11:09:15.560Z,21.52
2024-01-07T11:10:15.643Z,21.48
2024-01-07T11:11:15.607Z,21.51
2024-01-07T11:12:15.624Z,21.51
2024-01-07T11:13:15.749Z,21.48
2024-01-07T11:14:15.670Z,21.52
2024-01-07T11:15:15.727Z,21.51
2024-01-07T11:16:15.934Z,21.51
2024-01-07T11:17:15.759Z,21.49
2024-01-07T11:18:15.853Z,21.52
2024-01-07T11:19:15.911Z,21.55
2024-01-07T11:20:15.815Z,21.49
2024-01-07T11:21:15.856Z,21.48
2024-01-07T11:22:15.998Z,21.56
2024-01-07T11:23:15.936Z,21.51
2024-01-07T11:24:15.917Z,21.53
2024-01-07T11:25:16.028Z,21.55
2024-01-07T11:26:15.984Z,21.53
2024-01-07T11:27:16.011Z,21.58
2024-01-07T11:28:16.050Z,21.52
2024-01-07T11:29:16.044Z,21.57
2024-01-07T11:30:16.058Z,21.57
2024-01-07T11:31:16.282Z,21.57
2024-01-07T11:32:16.094Z,21.55
2024-01-07T11:33:16.272Z,21.46
2024-01-07T11:34:16.207Z,21.49
2024-01-07T11:35:16.234Z,21.52
2024-01-07T11:36:16.188Z,21.51
2024-01-07T11:37:16.343Z,21.53
2024-01-07T11:38:16.207Z,21.54
2024-01-07T11:39:16.241Z,21.52
2024-01-07T11:40:16.438Z,21.48
2024-01-07T11:41:16.282Z,21.58
2024-01-07T11:42:16.276Z,21.59
2024-01-07T11:43:16.322Z,21.54
2024-01-07T11:44:16.370Z,21.57
2024-01-07T11:45:16.350Z,21.54
2024-01-07T11:46:16.445Z,21.52
2024-01-07T11:47:16.388Z,21.52
2024-01-07T11:48:16.458Z,21.57
2024-01-07T11:49:16.497Z,21.51
2024-01-07T11:50:16.466Z,21.50
2024-01-07T11:51:16.459Z,21.55
2024-01-07T11:52:16.532Z,21.62
2024-01-07T11:53:16.529Z,21.50
2024-01-07T11:54:16.538Z,21.50
2024-01-07T11:55:16.642Z,21.51
2024-01-07T11:56:16.587Z,21.57
2024-01-07T11:57:16.619Z,21.57
2024-01-07T11:58:16.716Z,21.58
2024-01-07T11:59:16.650Z,21.57
2024-01-07T12:00:16.703Z,21.54
2024-01-07T12:01:16.781Z,21.59
2024-01-07T12:02:16.762Z,21.57
2024-01-07T12:03:16.758Z,21.64
2024-01-07T12:04:16.837Z,21.62
2024-01-07T12:05:16.903Z,21.59
2024-01-07T12:06:16.864Z,21.61
2024-01-07T12:07:16.933Z,21.61
2024-01-07T12:08:16.844Z,21.54
2024-01-07T12:09:16.845Z,21.56
2024-01-07T12:10:16.966Z,21.59
2024-01-07T12:11:16.883Z,21.61
2024-01-07T12:12:16.889Z,21.59
2024-01-07T12:13:17.050Z,21.57
2024-01-07T12:14:16.914Z,21.56
2024-01-07T12:15:16.931Z,21.58
2024-01-07T12:16:16.977Z,21.58
2024-01-07T12:17:16.974Z,21.58
2024-01-07T12:18:17.102Z,21.50
2024-01-07T12:19:17.155Z,21.48
2024-01-07T12:20:17.007Z,21.53
2024-01-07T12:21:17.029Z,21.58
2024-01-07T12:22:17.103Z,21.63
2024-01-07T12:23:17.067Z,21.53
2024-01-07T12:24:17.077Z,21.51
2024-01-07T12:25:17.130Z,21.51
2024-01-07T12:26:17.131Z,21.56
2024-01-07T12:27:17.148Z,21.49
2024-01-07T12:28:17.173Z,21.57
2024-01-07T12:29:17.160Z,21.54
2024-01-07T12:30:17.216Z,21.65
2024-01-07T12:31:17.391Z,21.62
2024-01-07T12:32:17.221Z,21.67
2024-01-07T12:33:17.324Z,21.64
2024-01-07T12:34:17.361Z,21.58
2024-01-07T12:35:17.477Z,21.62
2024-01-07T12:36:17.270Z,21.59
2024-01-07T12:37:17.352Z,21.54
2024-01-07T12:38:17.313Z,21.58
2024-01-07T12:39:17.324Z,21.58
2024-01-07T12:40:17.465Z,21.54
2024-01-07T12:41:17.378Z,21.56
2024-01-07T12:42:17.368Z,21.54
2024-01-07T12:43:17.419Z,21.53
2024-01-07T12:44:17.402Z,21.54
2024-01-07T12:45:17.453Z,21.53
2024-01-07T12:46:17.569Z,21.50
2024-01-07T12:47:17.474Z,21.54
2024-01-07T12:48:17.634Z,21.53
2024-01-07T12:49:17.552Z,21.56
2024-01-07T12:50:17.514Z,21.54
2024-01-07T12:51:19.378Z,21.51
2024-01-07T12:52:17.596Z,21.50
2024-01-07T12:53:17.562Z,21.51